Accident, Maryland
Current Conditions -  °F | °C
As of 5:15 PM on Friday 31 Oct 2014 (Local Time) from K2G4 Reporting Station
Overcast Overcast  
Wind Chill: 34°   Ceiling: 3400
Heat Index: 39°   Visibility: 10mi
Dew Point: 34°   Wind: 8mph
Humidity: 81%   Direction: 140°SE
Pressure: 29.81"   Gusts: NA
Location:  39.63°N, 79.32°W
Report Text: K2G4 312115Z AUTO 14007KT 10SM SCT021 SCT027 OVC034 04/01 A2981 RMK AO1
Loading
Personal Weather Stations






























Interactive Weather Map
Tropical Storm Tracking
New forecast layout! Learn more

10-Day Weather Forecast

Advertisements
Track Severe Weather on mobile